createdAt,value
2019-03-06T00:00:47.232Z,93.40
2019-03-06T00:03:15.755Z,92.80
2019-03-06T00:05:44.353Z,92.90
2019-03-06T00:08:13.099Z,92.80
2019-03-06T00:10:41.698Z,92.90
2019-03-06T00:13:10.364Z,92.60
2019-03-06T00:15:39.007Z,92.60
2019-03-06T00:18:07.603Z,92.60
2019-03-06T00:20:36.203Z,92.80
2019-03-06T00:23:04.831Z,92.70
2019-03-06T00:25:33.426Z,92.50
2019-03-06T00:28:01.956Z,92.60
2019-03-06T00:30:30.701Z,92.70
2019-03-06T00:32:59.442Z,92.70
2019-03-06T00:35:38.461Z,92.70
2019-03-06T00:38:07.012Z,92.80
2019-03-06T00:40:40.515Z,92.60
2019-03-06T00:43:09.105Z,92.60
2019-03-06T00:45:37.704Z,92.50
2019-03-06T00:48:06.305Z,92.50
2019-03-06T00:50:34.872Z,92.50
2019-03-06T00:53:03.819Z,92.60
2019-03-06T00:55:32.411Z,92.70
2019-03-06T00:58:01.010Z,92.60
2019-03-06T01:00:29.652Z,92.70
2019-03-06T01:02:58.207Z,92.50
2019-03-06T01:05:27.024Z,92.30
2019-03-06T01:07:55.604Z,92.40
2019-03-06T01:10:24.132Z,92.20
2019-03-06T01:12:52.829Z,92.00
2019-03-06T01:15:21.773Z,92.00
2019-03-06T01:17:50.677Z,92.20
2019-03-06T01:20:19.258Z,92.30
2019-03-06T01:22:47.856Z,92.10
2019-03-06T01:25:19.911Z,92.30
2019-03-06T01:27:48.544Z,92.40
2019-03-06T01:30:21.180Z,92.40
2019-03-06T01:32:51.353Z,92.30
2019-03-06T01:35:21.866Z,92.50
2019-03-06T01:38:10.606Z,92.50
2019-03-06T01:40:46.574Z,92.50
2019-03-06T01:43:16.975Z,92.30
2019-03-06T01:45:45.507Z,92.20
2019-03-06T01:48:14.272Z,92.10
2019-03-06T01:50:42.883Z,92.00
2019-03-06T01:53:11.420Z,91.70
2019-03-06T01:55:40.071Z,92.30
2019-03-06T01:58:08.615Z,91.70
2019-03-06T02:00:38.280Z,91.60
2019-03-06T02:03:06.937Z,91.70
2019-03-06T02:05:35.614Z,91.90
2019-03-06T02:08:04.281Z,92.00
2019-03-06T02:10:33.486Z,92.00
2019-03-06T02:13:02.287Z,91.90
2019-03-06T02:15:30.955Z,92.00
2019-03-06T02:17:59.540Z,91.80
2019-03-06T02:20:28.067Z,91.60
2019-03-06T02:22:56.604Z,91.60
2019-03-06T02:25:25.154Z,91.50
2019-03-06T02:27:53.609Z,91.60
2019-03-06T02:30:23.827Z,91.20
2019-03-06T02:32:52.447Z,91.60
2019-03-06T02:35:21.064Z,91.50
2019-03-06T02:37:49.924Z,91.30
2019-03-06T02:40:18.481Z,91.40
2019-03-06T02:42:47.079Z,91.60
2019-03-06T02:45:20.148Z,91.50
2019-03-06T02:47:48.794Z,91.60
2019-03-06T02:50:18.256Z,91.60
2019-03-06T02:52:46.944Z,91.70
2019-03-06T02:55:16.763Z,91.70
2019-03-06T02:57:50.173Z,91.70
2019-03-06T03:00:39.551Z,91.80
2019-03-06T03:03:18.888Z,91.60
2019-03-06T03:06:01.261Z,91.60
2019-03-06T03:08:30.095Z,91.90
2019-03-06T03:10:58.628Z,91.80
2019-03-06T03:13:27.127Z,91.70
2019-03-06T03:15:55.799Z,91.80
2019-03-06T03:18:24.337Z,91.80
2019-03-06T03:20:52.896Z,91.80
2019-03-06T03:23:21.424Z,91.70
2019-03-06T03:25:49.952Z,91.70
2019-03-06T03:28:19.825Z,92.00
2019-03-06T03:30:48.606Z,91.80
2019-03-06T03:33:17.167Z,91.70
2019-03-06T03:35:45.802Z,91.90
2019-03-06T03:38:14.644Z,92.00
2019-03-06T03:40:43.164Z,91.70
2019-03-06T03:43:11.751Z,91.80
2019-03-06T03:45:40.214Z,91.80
2019-03-06T03:48:09.121Z,91.90
2019-03-06T03:50:37.700Z,91.80
2019-03-06T03:53:06.289Z,91.90
2019-03-06T03:55:34.837Z,91.90
2019-03-06T03:58:03.455Z,91.90
2019-03-06T04:00:32.155Z,91.70
2019-03-06T04:03:00.693Z,91.60
2019-03-06T04:05:29.270Z,91.30
2019-03-06T04:07:57.889Z,91.30
2019-03-06T04:10:26.409Z,91.00
2019-03-06T04:12:55.036Z,91.50
2019-03-06T04:15:23.683Z,91.00
2019-03-06T04:17:52.216Z,90.70
2019-03-06T04:20:20.785Z,90.70
2019-03-06T04:22:49.383Z,90.70
2019-03-06T04:25:17.837Z,90.60
2019-03-06T04:27:46.478Z,90.30
2019-03-06T04:30:19.168Z,90.30
2019-03-06T04:32:47.779Z,90.20
2019-03-06T04:35:16.349Z,90.20
2019-03-06T04:37:44.954Z,90.20
2019-03-06T04:40:14.922Z,90.00
2019-03-06T04:42:43.722Z,90.10
2019-03-06T04:45:16.227Z,90.20
2019-03-06T04:47:44.691Z,90.20
2019-03-06T04:50:16.467Z,90.30
2019-03-06T04:52:45.207Z,90.30
2019-03-06T04:55:16.631Z,90.20
2019-03-06T04:57:45.147Z,90.40
2019-03-06T05:00:19.419Z,90.50
2019-03-06T05:02:47.949Z,90.80
2019-03-06T05:05:16.519Z,90.90
2019-03-06T05:07:44.984Z,90.90
2019-03-06T05:10:14.655Z,91.00
2019-03-06T05:12:42.445Z,91.10
2019-03-06T05:15:31.833Z,91.20
2019-03-06T05:18:04.513Z,91.50
2019-03-06T05:20:33.041Z,91.60
2019-03-06T05:23:01.644Z,91.30
2019-03-06T05:25:30.416Z,91.50
2019-03-06T05:27:59.012Z,91.60
2019-03-06T05:30:29.130Z,91.50
2019-03-06T05:33:04.071Z,91.80
2019-03-06T05:35:47.415Z,91.80
2019-03-06T05:38:19.396Z,91.80
2019-03-06T05:40:48.000Z,91.80
2019-03-06T05:43:16.911Z,91.80
2019-03-06T05:45:46.019Z,91.50
2019-03-06T05:48:14.495Z,91.40
2019-03-06T05:50:43.031Z,91.20
2019-03-06T05:53:11.601Z,91.30
2019-03-06T05:55:40.132Z,91.20
2019-03-06T05:58:09.140Z,91.30
2019-03-06T06:00:37.782Z,91.10
2019-03-06T06:03:06.385Z,91.30
2019-03-06T06:05:34.997Z,90.90
2019-03-06T06:08:03.775Z,90.70
2019-03-06T06:10:32.889Z,90.70
2019-03-06T06:13:01.491Z,90.30
2019-03-06T06:15:30.171Z,90.20
2019-03-06T06:17:58.812Z,90.20
2019-03-06T06:20:27.459Z,90.50
2019-03-06T06:22:57.747Z,90.30
2019-03-06T06:25:26.297Z,90.20
2019-03-06T06:27:54.807Z,90.00
2019-03-06T06:30:23.449Z,90.10
2019-03-06T06:32:52.051Z,90.10
2019-03-06T06:35:20.584Z,89.90
2019-03-06T06:37:49.317Z,89.90
2019-03-06T06:40:37.259Z,89.40
2019-03-06T06:43:05.936Z,89.40
2019-03-06T06:45:35.345Z,89.20
2019-03-06T06:48:12.228Z,88.80
2019-03-06T06:50:46.642Z,88.90
2019-03-06T06:53:29.869Z,88.60
2019-03-06T06:56:10.401Z,87.00
2019-03-06T06:58:57.005Z,86.80
2019-03-06T07:01:45.488Z,87.70
2019-03-06T07:04:50.292Z,88.50
2019-03-06T07:07:29.423Z,87.60
2019-03-06T07:09:59.759Z,86.30
2019-03-06T07:12:46.599Z,86.10
2019-03-06T07:15:31.932Z,85.80
2019-03-06T07:18:17.460Z,85.80
2019-03-06T07:21:06.103Z,84.90
2019-03-06T07:23:41.255Z,83.30
2019-03-06T07:26:27.641Z,83.60
2019-03-06T07:28:57.910Z,82.10
2019-03-06T07:31:31.362Z,79.90
2019-03-06T07:34:04.456Z,79.80
2019-03-06T07:36:51.986Z,79.40
2019-03-06T07:39:25.566Z,79.90
2019-03-06T07:42:01.747Z,79.00
2019-03-06T07:44:41.001Z,78.70
2019-03-06T07:47:20.492Z,80.50
2019-03-06T07:49:57.298Z,78.80
2019-03-06T07:52:36.396Z,79.90
2019-03-06T07:55:09.894Z,79.40
2019-03-06T07:57:57.967Z,78.40
2019-03-06T08:00:26.652Z,76.20
2019-03-06T08:03:04.731Z,75.50
2019-03-06T08:05:33.557Z,74.90
2019-03-06T08:08:02.340Z,75.80
2019-03-06T08:10:32.562Z,73.90
2019-03-06T08:13:02.881Z,72.00
2019-03-06T08:15:44.936Z,69.60
2019-03-06T08:18:20.955Z,69.30
2019-03-06T08:20:51.249Z,71.90
2019-03-06T08:23:30.303Z,67.10
2019-03-06T08:25:58.877Z,66.20
2019-03-06T08:28:27.562Z,66.00
2019-03-06T08:31:06.490Z,67.00
2019-03-06T08:33:35.079Z,65.50
2019-03-06T08:36:03.863Z,65.30
2019-03-06T08:38:32.652Z,65.20
2019-03-06T08:41:04.550Z,66.30
2019-03-06T08:43:31.619Z,66.40
2019-03-06T08:46:07.728Z,66.30
2019-03-06T08:48:41.079Z,65.30
2019-03-06T08:51:17.279Z,64.50
2019-03-06T08:54:03.681Z,61.90
2019-03-06T08:56:36.566Z,58.00
2019-03-06T08:59:09.622Z,54.50
2019-03-06T09:01:46.330Z,53.70
2019-03-06T09:04:26.353Z,52.10
2019-03-06T09:06:56.722Z,50.60
2019-03-06T09:09:29.896Z,49.20
2019-03-06T09:12:15.339Z,47.10
2019-03-06T09:15:01.585Z,44.80
2019-03-06T09:17:31.931Z,44.30
2019-03-06T09:20:02.123Z,45.20
2019-03-06T09:22:32.410Z,48.20
2019-03-06T09:25:02.770Z,47.40
2019-03-06T09:27:57.162Z,47.00
2019-03-06T09:30:33.160Z,44.90
2019-03-06T09:33:06.059Z,46.60
2019-03-06T09:35:39.164Z,47.00
2019-03-06T09:38:18.529Z,48.30
2019-03-06T09:41:01.245Z,49.80
2019-03-06T09:43:31.471Z,51.30
2019-03-06T09:46:01.755Z,50.90
2019-03-06T09:48:32.013Z,51.40
2019-03-06T09:51:19.345Z,48.70
2019-03-06T09:53:58.781Z,46.50
2019-03-06T09:56:29.065Z,44.70
2019-03-06T09:58:59.329Z,45.30
2019-03-06T10:01:35.997Z,46.80
2019-03-06T10:04:12.569Z,46.20
2019-03-06T10:06:52.018Z,49.50
2019-03-06T10:09:24.992Z,50.50
2019-03-06T10:11:57.775Z,51.10
2019-03-06T10:14:33.701Z,51.90
2019-03-06T10:17:04.381Z,51.90
2019-03-06T10:19:34.700Z,49.50
2019-03-06T10:22:03.488Z,46.40
2019-03-06T10:24:32.332Z,44.10
2019-03-06T10:27:00.855Z,45.20
2019-03-06T10:29:33.012Z,41.90
2019-03-06T10:32:01.704Z,40.90
2019-03-06T10:34:30.720Z,41.10
2019-03-06T10:36:59.394Z,42.60
2019-03-06T10:39:28.180Z,40.60
2019-03-06T10:41:56.859Z,41.80
2019-03-06T10:44:29.602Z,45.50
2019-03-06T10:47:15.123Z,48.10
2019-03-06T10:49:43.771Z,47.60
2019-03-06T10:52:13.007Z,43.10
2019-03-06T10:54:44.666Z,40.60
2019-03-06T10:57:11.921Z,40.00
2019-03-06T10:59:41.125Z,39.30
2019-03-06T11:02:10.006Z,38.60
2019-03-06T11:04:40.739Z,39.00
2019-03-06T11:07:09.630Z,38.40
2019-03-06T11:09:38.534Z,37.30
2019-03-06T11:12:07.519Z,39.40
2019-03-06T11:14:36.613Z,39.90
2019-03-06T11:17:05.606Z,40.10
2019-03-06T11:19:34.702Z,41.60
2019-03-06T11:22:03.605Z,46.10
2019-03-06T11:24:32.342Z,48.10
2019-03-06T11:27:01.069Z,45.50
2019-03-06T11:30:00.645Z,44.40
2019-03-06T11:32:29.646Z,41.20
2019-03-06T11:34:58.466Z,38.70
2019-03-06T11:37:27.355Z,40.20
2019-03-06T11:39:56.040Z,41.60
2019-03-06T11:42:24.731Z,41.20
2019-03-06T11:44:53.618Z,40.40
2019-03-06T11:47:22.313Z,40.60
2019-03-06T11:49:50.980Z,38.70
2019-03-06T11:52:19.684Z,39.10
2019-03-06T11:54:48.598Z,37.80
2019-03-06T11:57:17.367Z,37.90
2019-03-06T11:59:46.559Z,38.50
2019-03-06T12:02:15.958Z,41.00
2019-03-06T12:04:44.645Z,40.80
2019-03-06T12:07:13.430Z,40.00
2019-03-06T12:09:42.121Z,39.50
2019-03-06T12:12:10.882Z,39.10
2019-03-06T12:14:40.002Z,40.20
2019-03-06T12:17:08.663Z,40.60
2019-03-06T12:19:37.785Z,40.80
2019-03-06T12:22:06.544Z,41.20
2019-03-06T12:24:35.259Z,40.00
2019-03-06T12:27:04.458Z,38.50
2019-03-06T12:29:33.109Z,40.10
2019-03-06T12:32:02.318Z,40.20
2019-03-06T12:34:30.839Z,38.40
2019-03-06T12:36:59.485Z,38.50
2019-03-06T12:39:28.303Z,37.40
2019-03-06T12:41:58.738Z,37.70
2019-03-06T12:44:27.127Z,37.40
2019-03-06T12:46:56.089Z,37.80
2019-03-06T12:49:24.764Z,37.60
2019-03-06T12:51:54.632Z,39.10
2019-03-06T12:54:23.531Z,39.40
2019-03-06T12:56:52.444Z,40.20
2019-03-06T12:59:21.015Z,39.70
2019-03-06T13:01:49.751Z,38.40
2019-03-06T13:04:20.554Z,38.00
2019-03-06T13:06:48.795Z,38.80
2019-03-06T13:09:17.862Z,39.30
2019-03-06T13:11:46.530Z,37.90
2019-03-06T13:14:15.166Z,38.60
2019-03-06T13:16:43.872Z,39.50
2019-03-06T13:19:12.402Z,38.90
2019-03-06T13:21:41.285Z,37.90
2019-03-06T13:24:10.067Z,36.50
2019-03-06T13:26:38.679Z,36.20
2019-03-06T13:29:07.263Z,37.60
2019-03-06T13:31:36.101Z,37.90
2019-03-06T13:34:12.175Z,35.70
2019-03-06T13:36:40.708Z,35.60
2019-03-06T13:39:09.776Z,36.70
2019-03-06T13:41:38.414Z,36.70
2019-03-06T13:44:07.019Z,36.40
2019-03-06T13:46:41.872Z,37.10
2019-03-06T13:49:10.429Z,37.00
2019-03-06T13:51:39.036Z,37.30
2019-03-06T13:54:07.735Z,37.20
2019-03-06T13:56:38.438Z,37.60
2019-03-06T13:59:06.883Z,37.40
2019-03-06T14:01:38.872Z,36.20
2019-03-06T14:04:11.995Z,36.80
2019-03-06T14:06:40.608Z,34.70
2019-03-06T14:09:09.590Z,34.80
2019-03-06T14:11:38.290Z,35.90
2019-03-06T14:14:06.897Z,37.90
2019-03-06T14:16:35.869Z,38.90
2019-03-06T14:19:04.576Z,37.60
2019-03-06T14:21:33.176Z,36.70
2019-03-06T14:24:01.855Z,38.20
2019-03-06T14:26:30.489Z,39.80
2019-03-06T14:28:59.096Z,40.30
2019-03-06T14:31:30.479Z,38.60
2019-03-06T14:33:59.202Z,38.80
2019-03-06T14:36:28.227Z,37.90
2019-03-06T14:38:56.772Z,40.20
2019-03-06T14:41:25.644Z,41.20
2019-03-06T14:43:54.239Z,40.70
2019-03-06T14:46:22.914Z,41.40
2019-03-06T14:48:51.645Z,41.40
2019-03-06T14:51:20.250Z,41.40
2019-03-06T14:53:48.927Z,40.10
2019-03-06T14:56:17.561Z,38.20
2019-03-06T14:58:46.436Z,37.70
2019-03-06T15:01:15.039Z,38.10
2019-03-06T15:03:43.675Z,38.70
2019-03-06T15:06:12.763Z,38.50
2019-03-06T15:08:41.415Z,39.90
2019-03-06T15:11:10.119Z,40.40
2019-03-06T15:13:38.856Z,38.90
2019-03-06T15:16:07.393Z,38.10
2019-03-06T15:18:35.967Z,38.80
2019-03-06T15:21:04.572Z,39.80
2019-03-06T15:23:33.444Z,40.50
2019-03-06T15:26:02.023Z,41.20
2019-03-06T15:28:30.819Z,40.70
2019-03-06T15:30:59.418Z,40.20
2019-03-06T15:33:28.012Z,39.80
2019-03-06T15:35:56.625Z,40.60
2019-03-06T15:38:25.291Z,41.80
2019-03-06T15:40:54.223Z,42.40
2019-03-06T15:43:23.415Z,41.70
2019-03-06T15:45:52.038Z,42.90
2019-03-06T15:48:20.668Z,44.00
2019-03-06T15:50:49.298Z,45.30
2019-03-06T15:53:24.548Z,45.60
2019-03-06T15:55:48.339Z,45.60
2019-03-06T15:58:17.015Z,46.00
2019-03-06T16:00:46.755Z,46.10
2019-03-06T16:03:15.904Z,45.50
2019-03-06T16:05:44.783Z,46.40
2019-03-06T16:08:14.260Z,46.70
2019-03-06T16:10:43.066Z,47.00
2019-03-06T16:13:11.662Z,47.20
2019-03-06T16:15:40.363Z,47.80
2019-03-06T16:18:10.173Z,47.60
2019-03-06T16:20:39.148Z,48.00
2019-03-06T16:23:08.319Z,48.40
2019-03-06T16:25:39.866Z,48.00
2019-03-06T16:28:07.576Z,48.60
2019-03-06T16:30:36.254Z,48.10
2019-03-06T16:33:04.952Z,48.50
2019-03-06T16:35:33.623Z,48.70
2019-03-06T16:38:02.292Z,48.70
2019-03-06T16:40:31.172Z,49.40
2019-03-06T16:42:59.751Z,49.40
2019-03-06T16:45:29.707Z,49.30
2019-03-06T16:48:00.216Z,49.70
2019-03-06T16:50:29.011Z,49.80
2019-03-06T16:52:57.794Z,49.80
2019-03-06T16:55:27.459Z,49.70
2019-03-06T16:57:55.862Z,50.00
2019-03-06T17:00:29.932Z,50.00
2019-03-06T17:03:01.342Z,50.30
2019-03-06T17:05:30.611Z,51.00
2019-03-06T17:07:59.880Z,50.70
2019-03-06T17:10:30.195Z,50.80
2019-03-06T17:12:59.356Z,51.10
2019-03-06T17:15:29.600Z,51.10
2019-03-06T17:17:58.311Z,51.10
2019-03-06T17:20:29.070Z,51.10
2019-03-06T17:22:58.439Z,51.30
2019-03-06T17:25:28.382Z,51.10
2019-03-06T17:27:57.795Z,51.40
2019-03-06T17:30:32.261Z,51.50
2019-03-06T17:33:03.180Z,51.70
2019-03-06T17:35:35.352Z,51.50
2019-03-06T17:38:05.207Z,51.50
2019-03-06T17:40:33.897Z,51.70
2019-03-06T17:43:02.875Z,51.80
2019-03-06T17:45:36.913Z,51.60
2019-03-06T17:48:06.476Z,51.80
2019-03-06T17:50:35.348Z,51.70
2019-03-06T17:53:04.588Z,51.80
2019-03-06T17:55:33.391Z,52.00
2019-03-06T17:58:02.016Z,52.00
2019-03-06T18:00:34.739Z,51.70
2019-03-06T18:03:04.780Z,51.80
2019-03-06T18:05:33.453Z,51.80
2019-03-06T18:08:02.191Z,52.10
2019-03-06T18:10:30.847Z,52.00
2019-03-06T18:12:59.402Z,52.10
2019-03-06T18:15:28.374Z,52.10
2019-03-06T18:17:57.166Z,51.80
2019-03-06T18:20:25.698Z,51.50
2019-03-06T18:22:55.242Z,51.40
2019-03-06T18:25:25.346Z,51.50
2019-03-06T18:27:53.991Z,51.50
2019-03-06T18:30:23.028Z,51.40
2019-03-06T18:32:51.752Z,51.40
2019-03-06T18:35:32.245Z,51.30
2019-03-06T18:38:00.892Z,51.20
2019-03-06T18:40:29.901Z,51.40
2019-03-06T18:42:58.591Z,51.40
2019-03-06T18:45:27.533Z,51.40
2019-03-06T18:47:56.166Z,51.40
2019-03-06T18:50:25.440Z,51.40
2019-03-06T18:52:54.176Z,52.60
2019-03-06T18:55:24.332Z,51.80
2019-03-06T18:57:55.629Z,52.20
2019-03-06T19:00:29.385Z,52.70
2019-03-06T19:02:59.437Z,53.20
2019-03-06T19:05:28.461Z,53.20
2019-03-06T19:07:57.191Z,53.30
2019-03-06T19:10:26.774Z,53.10
2019-03-06T19:13:14.028Z,53.40
2019-03-06T19:15:42.713Z,53.20
2019-03-06T19:18:11.495Z,53.40
2019-03-06T19:20:40.294Z,53.70
2019-03-06T19:23:28.333Z,53.90
2019-03-06T19:25:57.159Z,53.40
2019-03-06T19:28:25.836Z,53.80
2019-03-06T19:30:54.439Z,53.90
2019-03-06T19:33:23.079Z,54.00
2019-03-06T19:35:52.007Z,54.30
2019-03-06T19:38:20.588Z,54.10
2019-03-06T19:40:49.257Z,54.40
2019-03-06T19:43:17.960Z,54.60
2019-03-06T19:45:46.651Z,54.50
2019-03-06T19:48:15.376Z,54.40
2019-03-06T19:50:44.119Z,54.50
2019-03-06T19:53:12.805Z,54.20
2019-03-06T19:55:41.520Z,54.50
2019-03-06T19:58:11.556Z,55.10
2019-03-06T20:00:40.447Z,54.20
2019-03-06T20:03:09.908Z,53.90
2019-03-06T20:05:41.909Z,54.10
2019-03-06T20:08:12.793Z,54.10
2019-03-06T20:10:41.821Z,54.40
2019-03-06T20:13:11.283Z,54.50
2019-03-06T20:15:40.781Z,55.00
2019-03-06T20:18:09.929Z,54.90
2019-03-06T20:20:38.834Z,55.30
2019-03-06T20:23:07.811Z,55.60
2019-03-06T20:25:37.203Z,55.50
2019-03-06T20:28:06.292Z,55.70
2019-03-06T20:30:35.166Z,55.60
2019-03-06T20:33:04.385Z,55.50
2019-03-06T20:35:33.063Z,54.80
2019-03-06T20:38:01.736Z,54.70
2019-03-06T20:40:30.376Z,55.20
2019-03-06T20:42:58.997Z,54.90
2019-03-06T20:45:27.671Z,54.50
2019-03-06T20:47:56.391Z,54.70
2019-03-06T20:50:24.996Z,55.00
2019-03-06T20:52:55.222Z,55.80
2019-03-06T20:55:23.890Z,55.30
2019-03-06T20:57:52.726Z,55.30
2019-03-06T21:00:25.156Z,55.40
2019-03-06T21:02:53.783Z,55.50
2019-03-06T21:05:22.563Z,55.30
2019-03-06T21:07:51.165Z,55.60
2019-03-06T21:10:20.572Z,55.40
2019-03-06T21:12:49.186Z,55.20
2019-03-06T21:15:20.781Z,55.10
2019-03-06T21:17:49.360Z,54.80
2019-03-06T21:20:24.839Z,54.50
2019-03-06T21:22:53.407Z,54.70
2019-03-06T21:25:22.482Z,54.80
2019-03-06T21:27:51.387Z,55.20
2019-03-06T21:30:24.098Z,54.70
2019-03-06T21:32:52.635Z,54.70
2019-03-06T21:35:21.308Z,54.50
2019-03-06T21:37:49.886Z,54.50
2019-03-06T21:40:18.502Z,55.00
2019-03-06T21:42:47.404Z,55.90
2019-03-06T21:45:16.363Z,56.90
2019-03-06T21:47:44.887Z,57.40
2019-03-06T21:50:15.729Z,58.10
2019-03-06T21:52:44.444Z,58.80
2019-03-06T21:55:16.257Z,59.20
2019-03-06T21:57:45.266Z,59.60
2019-03-06T22:00:23.987Z,59.60
2019-03-06T22:02:52.566Z,59.10
2019-03-06T22:05:21.242Z,58.60
2019-03-06T22:07:50.731Z,58.70
2019-03-06T22:10:20.061Z,58.50
2019-03-06T22:12:48.758Z,58.50
2019-03-06T22:15:18.942Z,58.30
2019-03-06T22:17:47.766Z,58.00
2019-03-06T22:20:16.435Z,57.90
2019-03-06T22:22:45.136Z,57.80
2019-03-06T22:25:15.978Z,57.70
2019-03-06T22:27:44.585Z,57.50
2019-03-06T22:30:15.988Z,57.20
2019-03-06T22:32:44.519Z,57.00
2019-03-06T22:35:13.692Z,56.70
2019-03-06T22:37:42.327Z,56.50
2019-03-06T22:40:13.974Z,56.70
2019-03-06T22:42:42.511Z,56.50
2019-03-06T22:45:13.915Z,56.50
2019-03-06T22:47:42.521Z,56.70
2019-03-06T22:50:13.678Z,56.70
2019-03-06T22:52:42.319Z,56.70
2019-03-06T22:55:13.568Z,56.60
2019-03-06T22:57:42.101Z,57.00
2019-03-06T23:00:19.583Z,56.80
2019-03-06T23:02:48.323Z,56.90
2019-03-06T23:05:16.941Z,57.00
2019-03-06T23:07:45.647Z,57.60
2019-03-06T23:10:14.320Z,56.80
2019-03-06T23:12:42.920Z,56.90
2019-03-06T23:15:11.636Z,56.70
2019-03-06T23:17:40.168Z,56.80
2019-03-06T23:20:09.324Z,56.70
2019-03-06T23:22:37.926Z,56.60
2019-03-06T23:25:07.487Z,56.50
2019-03-06T23:27:36.022Z,56.70
2019-03-06T23:30:07.650Z,56.60
2019-03-06T23:32:36.186Z,56.50
2019-03-06T23:35:06.471Z,56.50
2019-03-06T23:37:35.100Z,56.60
2019-03-06T23:40:04.971Z,56.60
2019-03-06T23:42:33.504Z,56.70
2019-03-06T23:45:02.080Z,56.70
2019-03-06T23:47:30.681Z,56.60
2019-03-06T23:49:59.800Z,56.60
2019-03-06T23:52:32.923Z,56.80
2019-03-06T23:55:01.447Z,57.10
2019-03-06T23:57:30.051Z,57.40
2019-03-06T23:59:58.617Z,57.60
